Time;durP1;ratioP1;P1;durP2;ratioP2;P2;SDS_P1;SDS_P2;PMS_P1;PMS_P2;Temp;Humidity;BMP_temperature;BMP_pressure;BME280_temperature;BME280_humidity;BME280_pressure;Samples;Min_cycle;Max_cycle;Signal;HPM_P1;HPM_P2
2024/01/04 00:01:11;;;;;;;5.30;1.23;;;11.20;99.90;;;;;;4970914;28;20245;-20
2024/01/04 00:03:37;;;;;;;2.78;1.23;;;11.20;99.90;;;;;;4948674;28;20035;-22
2024/01/04 00:06:03;;;;;;;4.03;1.10;;;11.20;99.90;;;;;;4972196;28;20518;-20
2024/01/04 00:08:28;;;;;;;3.15;1.00;;;11.20;99.90;;;;;;4971152;28;20092;-20
2024/01/04 00:10:54;;;;;;;3.72;0.90;;;11.20;99.90;;;;;;4969093;28;20065;-19
2024/01/04 00:13:20;;;;;;;2.63;0.90;;;11.20;99.90;;;;;;4975286;28;20030;-20
2024/01/04 00:15:45;;;;;;;3.42;1.00;;;11.20;99.90;;;;;;4973235;28;20487;-20
2024/01/04 00:18:11;;;;;;;3.30;1.07;;;11.20;99.90;;;;;;4974452;28;20510;-21
2024/01/04 00:20:37;;;;;;;2.13;1.10;;;11.20;99.90;;;;;;4970737;28;20455;-20
2024/01/04 00:23:03;;;;;;;2.20;0.80;;;11.20;99.90;;;;;;4967626;28;20022;-22
2024/01/04 00:25:29;;;;;;;1.88;1.10;;;11.20;99.90;;;;;;4975939;28;20054;-20
2024/01/04 00:27:54;;;;;;;3.20;0.93;;;11.20;99.90;;;;;;4955502;28;20434;-20
2024/01/04 00:30:20;;;;;;;3.33;0.98;;;11.20;99.90;;;;;;4973684;28;20035;-20
2024/01/04 00:32:46;;;;;;;3.67;1.30;;;11.20;99.90;;;;;;4949949;28;20779;-20
2024/01/04 00:35:11;;;;;;;2.20;0.90;;;11.30;99.90;;;;;;4973703;28;20635;-20
2024/01/04 00:37:37;;;;;;;2.00;1.10;;;11.30;99.90;;;;;;4972493;28;20471;-20
2024/01/04 00:40:03;;;;;;;4.20;1.10;;;11.20;99.90;;;;;;4974503;28;20482;-20
2024/01/04 00:42:29;;;;;;;1.87;0.90;;;11.20;99.90;;;;;;4973035;28;20118;-19
2024/01/04 00:44:55;;;;;;;2.08;0.90;;;11.30;99.90;;;;;;4972508;28;20113;-20
2024/01/04 00:47:20;;;;;;;3.70;1.20;;;11.30;99.90;;;;;;4976114;28;20525;-20
2024/01/04 00:49:46;;;;;;;2.00;1.10;;;11.30;99.90;;;;;;4973865;28;20740;-20
2024/01/04 00:52:12;;;;;;;1.73;1.00;;;11.30;99.90;;;;;;4973652;28;20479;-20
2024/01/04 00:54:37;;;;;;;2.67;0.90;;;11.30;99.90;;;;;;4957682;28;20561;-20
2024/01/04 00:57:03;;;;;;;2.53;1.00;;;11.30;99.90;;;;;;4953886;28;20387;-19
2024/01/04 00:59:29;;;;;;;4.07;1.00;;;11.30;99.90;;;;;;4971472;28;20036;-17
2024/01/04 01:01:55;;;;;;;2.20;0.68;;;11.30;99.90;;;;;;4971020;28;20465;-18
2024/01/04 01:04:20;;;;;;;3.13;0.90;;;11.30;99.90;;;;;;4974484;28;20624;-18
2024/01/04 01:06:46;;;;;;;2.23;0.73;;;11.30;99.90;;;;;;4972789;28;20450;-18
2024/01/04 01:09:11;;;;;;;2.43;1.00;;;11.30;99.90;;;;;;4972988;28;20258;-18
2024/01/04 01:11:37;;;;;;;1.50;0.80;;;11.30;99.90;;;;;;4972157;28;20467;-15
2024/01/04 01:14:03;;;;;;;4.78;1.17;;;11.30;99.90;;;;;;4960189;28;20521;-15
2024/01/04 01:16:29;;;;;;;3.17;0.80;;;11.40;99.90;;;;;;4968936;28;20101;-15
2024/01/04 01:18:55;;;;;;;3.70;0.83;;;11.40;99.90;;;;;;4970874;28;20500;-16
2024/01/04 01:21:21;;;;;;;3.58;0.90;;;11.40;99.90;;;;;;4970044;28;20621;-15
2024/01/04 01:23:46;;;;;;;5.03;1.33;;;11.30;99.90;;;;;;4972641;28;20533;-16
2024/01/04 01:26:12;;;;;;;1.35;0.70;;;11.30;99.90;;;;;;4972432;28;20417;-17
2024/01/04 01:28:38;;;;;;;3.47;0.90;;;11.40;99.90;;;;;;4973476;28;20398;-14
2024/01/04 01:31:03;;;;;;;3.35;1.05;;;11.30;99.90;;;;;;4974109;28;20027;-16
2024/01/04 01:33:29;;;;;;;2.10;0.80;;;11.40;99.90;;;;;;4960508;28;20374;-15
2024/01/04 01:35:55;;;;;;;3.28;0.90;;;11.30;99.90;;;;;;4974130;28;20155;-15
2024/01/04 01:38:21;;;;;;;3.63;1.10;;;11.30;99.90;;;;;;4976352;28;20046;-16
2024/01/04 01:40:46;;;;;;;2.95;0.90;;;11.30;99.90;;;;;;4960977;28;20094;-15
2024/01/04 01:43:12;;;;;;;3.27;1.10;;;11.30;99.90;;;;;;4975075;28;20026;-15
2024/01/04 01:45:38;;;;;;;2.35;0.80;;;11.30;99.90;;;;;;4959706;28;20038;-15
2024/01/04 01:48:05;;;;;;;2.13;0.60;;;11.30;99.90;;;;;;4975719;28;20257;-15
2024/01/04 01:50:32;;;;;;;1.83;0.68;;;11.20;99.90;;;;;;4958727;28;20066;-16
2024/01/04 01:52:58;;;;;;;2.38;0.70;;;11.20;99.90;;;;;;4946589;28;20248;-16
2024/01/04 01:55:25;;;;;;;1.67;0.70;;;11.20;99.90;;;;;;4929550;28;20038;-15
2024/01/04 01:57:51;;;;;;;1.67;0.60;;;11.20;99.90;;;;;;4935471;28;20049;-17
2024/01/04 02:00:17;;;;;;;1.08;0.60;;;11.10;99.90;;;;;;4956626;28;20037;-15
2024/01/04 02:02:45;;;;;;;1.17;0.65;;;11.10;99.90;;;;;;4958633;28;20027;-18
2024/01/04 02:05:13;;;;;;;1.65;0.60;;;11.10;99.90;;;;;;4953968;28;20023;-15
2024/01/04 02:07:38;;;;;;;1.13;0.70;;;11.10;99.90;;;;;;4938045;28;20082;-16
2024/01/04 02:10:05;;;;;;;2.70;0.73;;;11.00;99.90;;;;;;4957620;28;20058;-15
2024/01/04 02:12:31;;;;;;;0.85;0.60;;;11.00;99.90;;;;;;4951618;28;20034;-15
2024/01/04 02:14:57;;;;;;;1.60;0.50;;;11.00;99.90;;;;;;4958125;28;20029;-16
2024/01/04 02:17:25;;;;;;;0.70;0.50;;;11.00;99.90;;;;;;4940030;28;20402;-16
2024/01/04 02:19:52;;;;;;;1.30;0.60;;;10.90;99.90;;;;;;4958821;28;20144;-15
2024/01/04 02:22:17;;;;;;;0.80;0.45;;;10.90;99.90;;;;;;4957343;28;20018;-17
2024/01/04 02:24:46;;;;;;;1.13;0.40;;;10.90;99.90;;;;;;4950460;28;20489;-17
2024/01/04 02:27:16;;;;;;;0.50;0.40;;;10.90;99.90;;;;;;4954305;28;20373;-18
2024/01/04 02:29:42;;;;;;;1.10;0.50;;;10.80;99.90;;;;;;4953311;28;20031;-18
2024/01/04 02:32:08;;;;;;;0.50;0.40;;;10.90;99.90;;;;;;4956550;28;20034;-18
2024/01/04 02:34:34;;;;;;;1.47;0.53;;;10.80;99.90;;;;;;4956687;28;20027;-17
2024/01/04 02:37:00;;;;;;;1.27;0.60;;;10.80;99.90;;;;;;4928998;28;20101;-16
2024/01/04 02:39:25;;;;;;;0.60;0.60;;;10.80;99.90;;;;;;4943259;28;21912;-17
2024/01/04 02:41:51;;;;;;;1.13;0.43;;;10.70;99.90;;;;;;4952976;28;20035;-18
2024/01/04 02:44:17;;;;;;;0.60;0.40;;;10.70;99.90;;;;;;4945379;28;20204;-17
2024/01/04 02:46:43;;;;;;;1.03;0.47;;;10.70;99.90;;;;;;4948784;28;20503;-17
2024/01/04 02:49:08;;;;;;;0.98;0.68;;;10.70;99.90;;;;;;4948615;28;20392;-17
2024/01/04 02:51:34;;;;;;;1.30;0.50;;;10.70;99.90;;;;;;4953761;28;20039;-17
2024/01/04 02:54:00;;;;;;;1.23;0.50;;;10.60;99.90;;;;;;4953561;28;20411;-17
2024/01/04 02:56:26;;;;;;;0.40;0.40;;;10.70;99.90;;;;;;4955225;28;20395;-18
2024/01/04 02:58:52;;;;;;;0.63;0.38;;;10.60;99.90;;;;;;4953700;28;20505;-16
2024/01/04 03:01:21;;;;;;;0.45;0.38;;;10.60;99.90;;;;;;4952793;28;20027;-16
2024/01/04 03:03:55;;;;;;;0.40;0.30;;;10.70;99.90;;;;;;4975997;28;20023;-17
2024/01/04 03:06:29;;;;;;;1.17;0.35;;;10.70;99.90;;;;;;4979283;28;20104;-17
2024/01/04 03:08:55;;;;;;;0.40;0.40;;;10.70;99.90;;;;;;4976572;28;20034;-16
2024/01/04 03:11:21;;;;;;;0.85;0.30;;;10.70;99.90;;;;;;4974470;28;20352;-17
2024/01/04 03:13:47;;;;;;;0.67;0.43;;;10.70;99.90;;;;;;4974295;28;20556;-18
2024/01/04 03:16:20;;;;;;;1.05;0.30;;;10.70;99.90;;;;;;4977193;28;20041;-17
2024/01/04 03:18:46;;;;;;;0.60;0.60;;;10.70;99.90;;;;;;4977282;28;20092;-18
2024/01/04 03:21:13;;;;;;;0.55;0.43;;;10.70;99.90;;;;;;4977164;28;20030;-17
2024/01/04 03:23:38;;;;;;;1.33;0.50;;;10.70;99.90;;;;;;4974514;28;20142;-19
2024/01/04 03:26:04;;;;;;;0.83;0.40;;;10.70;99.90;;;;;;4973755;28;20027;-17
2024/01/04 03:28:30;;;;;;;0.98;0.50;;;10.70;99.90;;;;;;4972723;28;20414;-17
2024/01/04 03:30:59;;;;;;;1.65;0.50;;;10.80;99.90;;;;;;4973213;28;20030;-15
2024/01/04 03:33:25;;;;;;;1.43;0.57;;;10.70;99.90;;;;;;4976943;28;20683;-15
2024/01/04 03:35:51;;;;;;;1.40;0.57;;;10.80;99.90;;;;;;4973491;28;20040;-15
2024/01/04 03:38:17;;;;;;;1.13;0.60;;;10.70;99.90;;;;;;4978203;28;20038;-15
2024/01/04 03:40:42;;;;;;;0.50;0.50;;;10.70;99.90;;;;;;4957965;28;20031;-15
2024/01/04 03:43:08;;;;;;;1.40;0.68;;;10.70;99.90;;;;;;4978068;28;20426;-15
2024/01/04 03:45:34;;;;;;;1.20;0.50;;;10.70;99.90;;;;;;4975498;28;20762;-15
2024/01/04 03:48:00;;;;;;;0.82;0.68;;;10.70;99.90;;;;;;4975077;28;20086;-15
2024/01/04 03:50:26;;;;;;;1.30;0.70;;;10.70;99.90;;;;;;4971056;28;20047;-15
2024/01/04 03:52:52;;;;;;;1.50;0.70;;;10.70;99.90;;;;;;4973178;28;20030;-15
2024/01/04 03:55:18;;;;;;;0.63;0.57;;;10.70;99.90;;;;;;4973156;28;20248;-14
2024/01/04 03:57:44;;;;;;;0.90;0.60;;;10.70;99.90;;;;;;4973530;28;20149;-15
2024/01/04 04:00:10;;;;;;;0.63;0.60;;;10.70;99.90;;;;;;4970698;28;20371;-15
2024/01/04 04:02:36;;;;;;;0.70;0.50;;;10.70;99.90;;;;;;4966019;28;20370;-16
2024/01/04 04:05:02;;;;;;;1.30;0.50;;;10.70;99.90;;;;;;4973740;28;20033;-15
2024/01/04 04:07:28;;;;;;;1.43;0.60;;;10.70;99.90;;;;;;4963460;28;20022;-14
2024/01/04 04:09:55;;;;;;;0.80;0.60;;;10.70;99.90;;;;;;4954393;28;20377;-16
2024/01/04 04:12:21;;;;;;;2.08;0.75;;;10.60;99.90;;;;;;4974173;28;20038;-16
2024/01/04 04:14:46;;;;;;;1.70;0.70;;;10.70;99.90;;;;;;4973880;28;20451;-15
2024/01/04 04:17:14;;;;;;;1.33;0.60;;;10.70;99.90;;;;;;4976906;28;20026;-15
2024/01/04 04:19:39;;;;;;;2.07;0.80;;;10.70;99.90;;;;;;4971241;28;20026;-17
2024/01/04 04:22:05;;;;;;;2.85;0.80;;;10.60;99.90;;;;;;4974962;28;20026;-15
2024/01/04 04:24:31;;;;;;;2.20;0.70;;;10.70;99.90;;;;;;4972815;28;20033;-16
2024/01/04 04:26:56;;;;;;;1.55;0.73;;;10.60;99.90;;;;;;4953303;28;20169;-15
2024/01/04 04:29:22;;;;;;;2.60;0.80;;;10.70;99.90;;;;;;4973833;28;20034;-15
2024/01/04 04:31:48;;;;;;;1.03;0.70;;;10.70;99.90;;;;;;4972583;28;20809;-14
2024/01/04 04:34:14;;;;;;;3.10;0.73;;;10.70;99.90;;;;;;4957431;28;20041;-16
2024/01/04 04:36:40;;;;;;;3.83;0.80;;;10.70;99.90;;;;;;4955744;28;20054;-15
2024/01/04 04:39:07;;;;;;;3.97;0.90;;;10.70;99.90;;;;;;4958646;28;20128;-16
2024/01/04 04:41:33;;;;;;;1.52;0.70;;;9.30;99.90;;;;;;4966831;28;20197;-15
2024/01/04 04:43:58;;;;;;;1.97;0.70;;;10.70;99.90;;;;;;4974918;28;20038;-15
2024/01/04 04:46:25;;;;;;;2.70;0.90;;;10.80;99.90;;;;;;4964030;28;20042;-15
2024/01/04 04:48:55;;;;;;;1.75;0.80;;;10.80;99.90;;;;;;4958298;28;20371;-15
2024/01/04 04:51:22;;;;;;;1.70;0.77;;;10.80;99.90;;;;;;4952576;28;20019;-14
2024/01/04 04:53:48;;;;;;;2.72;0.80;;;10.80;99.90;;;;;;4965798;28;20118;-16
2024/01/04 04:56:14;;;;;;;1.50;0.70;;;10.80;99.90;;;;;;4969439;28;20593;-15
2024/01/04 04:58:39;;;;;;;1.83;0.70;;;10.80;99.90;;;;;;4963947;28;20031;-15
2024/01/04 05:01:06;;;;;;;2.40;0.80;;;10.80;99.90;;;;;;4969288;28;20030;-15
2024/01/04 05:03:32;;;;;;;1.50;0.50;;;10.80;99.90;;;;;;4972921;28;20062;-16
2024/01/04 05:05:58;;;;;;;2.05;0.60;;;10.90;99.90;;;;;;4974446;28;20086;-15
2024/01/04 05:08:24;;;;;;;2.58;0.70;;;10.90;99.90;;;;;;4975938;28;20023;-15
2024/01/04 05:10:49;;;;;;;1.53;0.80;;;10.90;99.90;;;;;;4955384;28;20102;-14
2024/01/04 05:13:15;;;;;;;1.50;0.60;;;10.90;99.90;;;;;;4967953;28;20022;-16
2024/01/04 05:15:42;;;;;;;1.57;0.80;;;10.90;99.90;;;;;;4953726;28;20038;-16
2024/01/04 05:18:09;;;;;;;2.33;0.70;;;10.90;99.90;;;;;;4971100;28;21057;-15
2024/01/04 05:20:35;;;;;;;2.00;0.60;;;10.80;99.90;;;;;;4956382;28;20037;-15
2024/01/04 05:23:01;;;;;;;0.88;0.43;;;10.80;99.90;;;;;;4946034;28;20034;-15
2024/01/04 05:25:27;;;;;;;1.80;0.57;;;10.80;99.90;;;;;;4974400;28;20055;-15
2024/01/04 05:27:52;;;;;;;3.22;0.70;;;10.80;99.90;;;;;;4971026;28;20015;-16
2024/01/04 05:30:18;;;;;;;0.80;0.47;;;10.80;99.90;;;;;;4970516;28;20086;-15
2024/01/04 05:32:44;;;;;;;1.35;0.70;;;10.70;99.90;;;;;;4973444;28;20023;-15
2024/01/04 05:35:11;;;;;;;1.87;0.60;;;10.70;99.90;;;;;;4963123;28;20367;-16
2024/01/04 05:37:38;;;;;;;1.45;0.60;;;10.70;99.90;;;;;;4960412;28;20050;-15
2024/01/04 05:40:04;;;;;;;2.25;0.60;;;10.70;99.90;;;;;;4956156;28;20031;-16
2024/01/04 05:42:29;;;;;;;1.38;0.57;;;10.70;99.90;;;;;;4969539;28;20034;-16
2024/01/04 05:44:55;;;;;;;3.67;0.63;;;10.70;99.90;;;;;;4967796;28;20041;-15
2024/01/04 05:47:21;;;;;;;2.15;0.65;;;10.70;99.90;;;;;;4971744;28;20066;-15
2024/01/04 05:49:47;;;;;;;1.23;0.60;;;10.70;99.90;;;;;;4972274;28;20043;-15
2024/01/04 05:52:12;;;;;;;2.50;0.80;;;10.70;99.90;;;;;;4974473;28;20027;-19
2024/01/04 05:54:38;;;;;;;0.80;0.50;;;10.70;99.90;;;;;;4973200;28;20522;-17
2024/01/04 05:57:05;;;;;;;1.10;0.57;;;10.70;99.90;;;;;;4972421;28;20359;-17
2024/01/04 05:59:31;;;;;;;1.20;0.60;;;10.70;99.90;;;;;;4966253;28;20065;-17
2024/01/04 06:01:56;;;;;;;1.35;0.65;;;10.70;99.90;;;;;;4971642;28;20562;-17
2024/01/04 06:04:22;;;;;;;0.80;0.60;;;10.70;99.90;;;;;;4972687;28;20042;-17
2024/01/04 06:06:48;;;;;;;1.80;0.77;;;10.70;99.90;;;;;;4972896;28;20042;-18
2024/01/04 06:09:13;;;;;;;2.70;0.60;;;10.30;99.90;;;;;;4974594;28;20887;-17
2024/01/04 06:11:39;;;;;;;2.03;0.70;;;10.70;99.90;;;;;;4973403;28;20489;-18
2024/01/04 06:14:06;;;;;;;3.00;0.80;;;10.70;99.90;;;;;;4957593;28;20541;-18
2024/01/04 06:16:32;;;;;;;2.47;0.70;;;10.70;99.90;;;;;;4965467;28;20030;-18
2024/01/04 06:18:58;;;;;;;2.92;0.50;;;10.70;99.90;;;;;;4977423;28;20034;-17
2024/01/04 06:21:24;;;;;;;2.43;0.70;;;10.70;99.90;;;;;;4976040;28;20022;-16
2024/01/04 06:23:50;;;;;;;2.70;0.77;;;10.70;99.90;;;;;;4977438;28;20567;-18
2024/01/04 06:26:19;;;;;;;0.98;0.70;;;10.80;99.90;;;;;;4974852;28;20026;-18
2024/01/04 06:28:45;;;;;;;2.35;0.82;;;10.80;99.90;;;;;;4973376;28;20034;-17
2024/01/04 06:31:11;;;;;;;2.33;0.90;;;10.80;99.90;;;;;;4962432;28;20138;-18
2024/01/04 06:33:37;;;;;;;1.35;0.80;;;10.80;99.90;;;;;;4976369;28;20054;-17
2024/01/04 06:36:03;;;;;;;1.67;0.80;;;10.90;99.90;;;;;;4959643;28;20132;-16
2024/01/04 06:38:29;;;;;;;2.43;0.70;;;10.90;99.90;;;;;;4972109;28;20035;-18
2024/01/04 06:40:58;;;;;;;1.58;0.70;;;10.90;99.90;;;;;;4974534;28;20038;-18
2024/01/04 06:43:25;;;;;;;1.65;0.80;;;10.90;99.90;;;;;;4974772;28;20014;-17
2024/01/04 06:45:51;;;;;;;1.55;0.90;;;10.90;99.90;;;;;;4947740;28;20391;-19
2024/01/04 06:48:17;;;;;;;3.33;0.80;;;10.90;99.90;;;;;;4957082;28;20034;-17
2024/01/04 06:50:44;;;;;;;2.40;0.70;;;10.90;99.90;;;;;;4978533;28;20312;-17
2024/01/04 06:53:14;;;;;;;1.60;0.80;;;11.00;99.90;;;;;;4956955;28;20057;-17
2024/01/04 06:55:41;;;;;;;1.55;0.63;;;10.90;99.90;;;;;;4959256;28;20219;-18
2024/01/04 06:58:08;;;;;;;1.65;0.80;;;10.90;99.90;;;;;;4961839;28;20022;-16
2024/01/04 07:00:34;;;;;;;1.33;0.70;;;9.60;99.90;;;;;;4973740;28;20038;-17
2024/01/04 07:02:59;;;;;;;2.45;0.88;;;10.90;99.90;;;;;;4957528;28;20302;-19
2024/01/04 07:05:25;;;;;;;1.67;0.77;;;11.00;99.90;;;;;;4976412;28;20489;-18
2024/01/04 07:07:51;;;;;;;1.48;0.80;;;11.00;99.90;;;;;;4976717;28;20026;-17
2024/01/04 07:10:17;;;;;;;2.77;1.20;;;11.00;99.90;;;;;;4974806;28;20450;-18
2024/01/04 07:12:43;;;;;;;1.70;0.80;;;11.00;99.90;;;;;;4978291;28;20039;-16
2024/01/04 07:15:09;;;;;;;3.00;1.02;;;11.00;99.90;;;;;;4973594;28;20022;-16
2024/01/04 07:17:35;;;;;;;2.30;0.80;;;11.00;99.90;;;;;;4968143;28;20088;-16
2024/01/04 07:20:03;;;;;;;2.47;1.20;;;11.10;99.90;;;;;;4972461;28;20038;-15
2024/01/04 07:22:29;;;;;;;2.30;1.23;;;11.00;99.90;;;;;;4974904;28;20133;-15
2024/01/04 07:24:56;;;;;;;2.88;1.00;;;11.10;99.90;;;;;;4972831;28;20348;-16
2024/01/04 07:27:22;;;;;;;3.47;1.47;;;11.10;99.90;;;;;;4973322;28;20026;-16
2024/01/04 07:29:47;;;;;;;3.55;1.58;;;11.10;99.90;;;;;;4957655;28;20034;-16
2024/01/04 07:32:18;;;;;;;1.85;1.10;;;11.10;99.90;;;;;;4973582;28;20225;-16
2024/01/04 07:34:44;;;;;;;2.53;1.20;;;11.10;99.90;;;;;;4974371;28;20057;-16
2024/01/04 07:37:10;;;;;;;3.30;1.05;;;11.10;99.90;;;;;;4967137;28;20031;-16
2024/01/04 07:39:36;;;;;;;2.78;1.10;;;11.10;99.90;;;;;;4974396;28;20552;-16
2024/01/04 07:42:02;;;;;;;3.33;1.40;;;11.20;99.90;;;;;;4975691;28;20094;-16
2024/01/04 07:44:27;;;;;;;4.30;1.50;;;11.10;99.90;;;;;;4956908;28;20508;-16
2024/01/04 07:46:53;;;;;;;3.28;1.45;;;11.20;99.90;;;;;;4973129;28;20026;-16
2024/01/04 07:49:19;;;;;;;3.00;1.37;;;11.20;99.90;;;;;;4963652;28;20455;-16
2024/01/04 07:51:44;;;;;;;2.72;1.33;;;11.20;99.90;;;;;;4953293;28;20149;-16
2024/01/04 07:54:10;;;;;;;2.70;1.20;;;11.20;99.90;;;;;;4964645;28;20034;-17
2024/01/04 07:56:36;;;;;;;3.83;1.45;;;11.20;99.90;;;;;;4969233;28;20078;-16
2024/01/04 07:59:02;;;;;;;2.58;1.10;;;11.20;99.90;;;;;;4970002;28;20031;-17
2024/01/04 08:01:28;;;;;;;1.50;1.00;;;11.20;99.90;;;;;;4973387;28;20229;-16
2024/01/04 08:03:54;;;;;;;2.05;1.10;;;11.20;99.90;;;;;;4971099;28;20466;-16
2024/01/04 08:06:19;;;;;;;5.13;1.00;;;11.20;99.90;;;;;;4972980;28;20040;-17
2024/01/04 08:08:45;;;;;;;4.85;1.20;;;11.20;99.90;;;;;;4971235;28;20030;-16
2024/01/04 08:11:11;;;;;;;3.57;1.20;;;11.20;99.90;;;;;;4973351;28;20029;-16
2024/01/04 08:13:37;;;;;;;3.45;1.10;;;11.20;99.90;;;;;;4953257;28;20030;-17
2024/01/04 08:16:04;;;;;;;3.95;1.10;;;11.20;99.90;;;;;;4968320;28;20046;-16
2024/01/04 08:18:31;;;;;;;2.10;0.90;;;11.30;99.90;;;;;;4966983;28;20030;-17
2024/01/04 08:20:56;;;;;;;2.13;0.90;;;11.20;99.90;;;;;;4964693;28;20018;-17
2024/01/04 08:23:22;;;;;;;3.27;0.90;;;11.20;99.90;;;;;;4971959;28;20514;-18
2024/01/04 08:25:48;;;;;;;2.97;0.90;;;11.20;99.90;;;;;;4972930;28;20026;-18
2024/01/04 08:28:14;;;;;;;2.43;0.80;;;11.20;99.90;;;;;;4971624;28;20419;-18
2024/01/04 08:30:40;;;;;;;4.03;0.90;;;11.20;99.90;;;;;;4956271;28;20050;-18
2024/01/04 08:33:06;;;;;;;4.65;0.90;;;11.20;99.90;;;;;;4972205;28;20059;-20
2024/01/04 08:35:31;;;;;;;5.80;0.80;;;11.20;99.90;;;;;;4971870;28;20379;-16
2024/01/04 08:37:57;;;;;;;3.40;0.70;;;11.20;99.90;;;;;;4973155;28;20037;-16
2024/01/04 08:40:23;;;;;;;2.33;0.63;;;11.20;99.90;;;;;;4969954;28;20730;-20
2024/01/04 08:42:48;;;;;;;2.28;0.60;;;11.10;99.90;;;;;;4953088;28;20023;-17
2024/01/04 08:45:14;;;;;;;1.97;0.80;;;11.10;99.90;;;;;;4970381;28;20429;-16
2024/01/04 08:47:40;;;;;;;3.88;0.90;;;11.10;99.90;;;;;;4972584;28;20533;-16
2024/01/04 08:50:07;;;;;;;3.40;0.70;;;11.10;99.90;;;;;;4956718;28;20470;-16
2024/01/04 08:52:33;;;;;;;2.88;0.73;;;11.10;99.90;;;;;;4958351;28;20061;-16
2024/01/04 08:54:59;;;;;;;2.70;1.13;;;11.10;99.90;;;;;;4972176;28;20031;-16
2024/01/04 08:57:25;;;;;;;2.87;0.70;;;11.10;99.90;;;;;;4972855;28;20406;-16
2024/01/04 08:59:51;;;;;;;4.68;0.80;;;11.10;99.90;;;;;;4950476;28;20273;-15
2024/01/04 09:02:17;;;;;;;5.72;0.90;;;11.10;99.90;;;;;;4969097;28;20150;-15
2024/01/04 09:04:43;;;;;;;6.15;1.05;;;11.00;99.90;;;;;;4968435;28;20027;-16
2024/01/04 09:07:09;;;;;;;5.17;1.33;;;11.10;99.90;;;;;;4972686;28;20027;-15
2024/01/04 09:09:35;;;;;;;2.90;0.90;;;11.10;99.90;;;;;;4952462;28;20490;-16
2024/01/04 09:12:01;;;;;;;5.88;1.17;;;11.00;99.90;;;;;;4956580;28;20038;-16
2024/01/04 09:14:27;;;;;;;5.73;1.13;;;11.00;99.90;;;;;;4970696;28;20545;-16
2024/01/04 09:16:53;;;;;;;5.27;1.20;;;11.00;99.90;;;;;;4970386;28;20262;-15
2024/01/04 09:19:20;;;;;;;4.57;1.00;;;11.00;99.90;;;;;;4950289;28;20193;-16
2024/01/04 09:21:50;;;;;;;6.15;1.20;;;11.00;99.90;;;;;;4959814;28;20042;-17
2024/01/04 09:24:20;;;;;;;3.57;1.07;;;11.00;99.90;;;;;;4969742;28;20023;-17
2024/01/04 09:26:46;;;;;;;4.38;1.02;;;11.00;99.90;;;;;;4970606;28;20027;-18
2024/01/04 09:29:13;;;;;;;4.50;1.10;;;11.00;99.90;;;;;;4969311;28;20072;-17
2024/01/04 09:31:39;;;;;;;6.15;1.38;;;11.00;99.90;;;;;;4972099;28;20167;-18
2024/01/04 09:34:06;;;;;;;5.43;1.33;;;11.00;99.90;;;;;;4971575;28;20034;-18
2024/01/04 09:36:32;;;;;;;4.37;1.20;;;11.00;99.90;;;;;;4971854;28;20189;-19
2024/01/04 09:38:58;;;;;;;4.13;1.10;;;11.00;99.90;;;;;;4958347;28;20089;-17
2024/01/04 09:41:28;;;;;;;5.25;1.10;;;11.00;99.90;;;;;;4968674;28;20101;-17
2024/01/04 09:43:56;;;;;;;3.03;0.88;;;11.00;99.90;;;;;;4967146;28;20489;-18
2024/01/04 09:46:25;;;;;;;4.73;0.93;;;11.00;99.90;;;;;;4971981;28;20092;-19
2024/01/04 09:48:59;;;;;;;8.60;1.13;;;11.00;99.90;;;;;;4970641;28;20065;-18
2024/01/04 09:51:27;;;;;;;6.97;1.20;;;11.00;99.90;;;;;;4973775;28;20517;-17
2024/01/04 09:53:54;;;;;;;6.78;1.20;;;11.00;99.90;;;;;;4973733;28;20030;-16
2024/01/04 09:56:23;;;;;;;5.50;1.17;;;11.00;99.90;;;;;;4973400;28;20666;-16
2024/01/04 09:58:49;;;;;;;4.03;1.10;;;11.00;99.90;;;;;;4974074;28;20027;-15
2024/01/04 10:01:30;;;;;;;6.95;1.40;;;11.00;99.90;;;;;;4971620;28;20014;-17
2024/01/04 10:04:04;;;;;;;8.23;1.73;;;11.00;99.90;;;;;;4974228;28;20032;-15
2024/01/04 10:06:34;;;;;;;6.97;1.50;;;11.00;99.90;;;;;;4961513;28;20449;-16
2024/01/04 10:09:20;;;;;;;5.72;1.20;;;11.00;99.90;;;;;;4958450;28;20430;-15
2024/01/04 10:12:05;;;;;;;6.03;1.30;;;11.00;99.90;;;;;;4972531;28;20153;-17
2024/01/04 10:14:31;;;;;;;6.85;1.52;;;11.10;99.90;;;;;;4975253;28;20581;-16
2024/01/04 10:17:01;;;;;;;6.20;1.67;;;11.00;99.90;;;;;;4956738;28;20070;-16
2024/01/04 10:19:29;;;;;;;9.77;1.75;;;11.00;99.90;;;;;;4976523;28;20694;-16
2024/01/04 10:22:07;;;;;;;8.52;2.15;;;11.10;99.90;;;;;;4953873;28;20039;-15
2024/01/04 10:24:37;;;;;;;4.63;1.63;;;11.10;99.90;;;;;;4972972;28;20121;-16
2024/01/04 10:27:05;;;;;;;9.15;1.98;;;11.10;99.90;;;;;;4976219;28;20125;-16
2024/01/04 10:29:35;;;;;;;6.25;1.70;;;11.10;99.90;;;;;;4974545;28;20038;-15
2024/01/04 10:32:05;;;;;;;4.22;1.23;;;11.10;99.90;;;;;;4967414;28;20252;-16
2024/01/04 10:34:34;;;;;;;6.93;1.40;;;11.10;99.90;;;;;;4973419;28;20680;-16
2024/01/04 10:37:13;;;;;;;5.03;1.50;;;11.20;99.90;;;;;;4970451;28;20352;-16
2024/01/04 10:39:40;;;;;;;4.75;1.08;;;11.20;99.90;;;;;;4973571;28;20038;-15
2024/01/04 10:42:08;;;;;;;8.70;1.75;;;11.30;99.90;;;;;;4971648;28;20035;-16
2024/01/04 10:44:35;;;;;;;6.95;1.38;;;11.40;99.90;;;;;;4966584;28;20019;-17
2024/01/04 10:47:02;;;;;;;5.32;1.23;;;11.50;99.90;;;;;;4963348;28;20050;-15
2024/01/04 10:49:28;;;;;;;5.23;1.10;;;11.60;99.90;;;;;;4972917;28;20441;-16
2024/01/04 10:51:57;;;;;;;4.97;1.10;;;11.60;99.90;;;;;;4976689;28;20057;-17
2024/01/04 10:54:32;;;;;;;6.15;1.88;;;11.70;99.90;;;;;;4971740;28;20403;-19
2024/01/04 10:56:59;;;;;;;4.95;1.17;;;11.70;99.90;;;;;;4956449;28;20568;-16
2024/01/04 10:59:28;;;;;;;8.50;1.40;;;11.80;99.90;;;;;;4963222;28;20030;-16
2024/01/04 11:01:54;;;;;;;3.97;1.20;;;11.80;99.90;;;;;;4973480;28;20093;-16
2024/01/04 11:04:22;;;;;;;4.43;1.25;;;11.80;99.90;;;;;;4975206;28;20105;-21
2024/01/04 11:06:49;;;;;;;4.80;1.17;;;11.90;99.90;;;;;;4975487;28;20593;-17
2024/01/04 11:09:17;;;;;;;5.57;1.42;;;11.90;99.90;;;;;;4974079;28;20022;-18
2024/01/04 11:11:44;;;;;;;6.60;1.35;;;11.90;99.90;;;;;;4971781;28;20034;-19
2024/01/04 11:14:10;;;;;;;6.33;1.50;;;11.90;99.90;;;;;;4971445;28;20053;-17
2024/01/04 11:16:45;;;;;;;3.30;1.10;;;12.00;99.90;;;;;;4972235;28;20675;-17
2024/01/04 11:19:41;;;;;;;7.70;1.70;;;12.00;99.90;;;;;;4972576;28;20045;-17
2024/01/04 11:22:22;;;;;;;4.15;1.50;;;12.00;99.90;;;;;;4952040;28;21000;-16
2024/01/04 11:25:18;;;;;;;6.20;1.53;;;12.20;99.90;;;;;;4966218;28;20319;-15
2024/01/04 11:27:44;;;;;;;5.75;1.30;;;12.10;99.90;;;;;;4974341;28;20045;-16
2024/01/04 11:30:11;;;;;;;5.32;0.90;;;12.20;99.90;;;;;;4975511;28;20050;-16
2024/01/04 11:32:38;;;;;;;4.18;1.25;;;12.30;99.90;;;;;;4971889;28;20061;-16
2024/01/04 11:35:05;;;;;;;6.32;1.40;;;12.30;99.90;;;;;;4972123;28;20423;-16
2024/01/04 11:37:33;;;;;;;4.23;1.00;;;11.80;99.90;;;;;;4971994;28;20656;-18
2024/01/04 11:40:06;;;;;;;4.05;0.90;;;12.40;99.90;;;;;;4974052;28;20060;-18
2024/01/04 11:42:39;;;;;;;4.90;1.02;;;12.50;99.90;;;;;;4972999;28;20330;-18
2024/01/04 11:45:14;;;;;;;4.28;1.10;;;12.60;99.90;;;;;;4964824;28;21392;-21
2024/01/04 11:47:41;;;;;;;3.70;0.90;;;12.80;99.90;;;;;;4973859;28;20120;-20
2024/01/04 11:50:19;;;;;;;7.87;1.20;;;12.90;99.90;;;;;;4970173;28;20169;-21
2024/01/04 11:52:45;;;;;;;4.90;1.15;;;13.10;99.90;;;;;;4969921;28;20117;-20
2024/01/04 11:55:21;;;;;;;6.47;1.13;;;13.30;99.90;;;;;;4971419;28;20025;-21
2024/01/04 11:57:47;;;;;;;6.00;1.38;;;13.40;99.90;;;;;;4964179;28;20394;-20
2024/01/04 12:00:16;;;;;;;3.47;1.00;;;13.60;99.90;;;;;;4948999;28;20606;-21
2024/01/04 12:02:42;;;;;;;4.43;1.08;;;13.70;99.90;;;;;;4969474;28;20407;-19
2024/01/04 12:05:08;;;;;;;4.85;0.95;;;13.70;99.90;;;;;;4942805;28;20027;-21
2024/01/04 12:07:35;;;;;;;4.88;0.90;;;13.70;99.90;;;;;;4972351;28;20358;-20
2024/01/04 12:10:02;;;;;;;4.00;1.00;;;13.80;99.90;;;;;;4972412;28;20027;-20
2024/01/04 12:12:28;;;;;;;4.32;1.00;;;13.80;99.90;;;;;;4973166;28;20077;-21
2024/01/04 12:14:53;;;;;;;3.28;1.08;;;13.90;99.90;;;;;;4969811;28;20027;-21
2024/01/04 12:17:19;;;;;;;5.67;1.13;;;13.90;99.90;;;;;;4972177;28;20035;-23
2024/01/04 12:19:47;;;;;;;3.35;1.00;;;13.90;99.90;;;;;;4971695;28;20034;-21
2024/01/04 12:22:13;;;;;;;4.35;1.02;;;14.00;99.90;;;;;;4971818;28;20034;-20
2024/01/04 12:24:41;;;;;;;4.38;0.82;;;14.00;99.90;;;;;;4971661;28;20066;-20
2024/01/04 12:27:08;;;;;;;5.40;0.90;;;14.10;99.90;;;;;;4969887;28;20022;-21
2024/01/04 12:29:34;;;;;;;5.43;1.45;;;14.10;99.90;;;;;;4972141;28;20019;-21
2024/01/04 12:32:02;;;;;;;4.25;0.90;;;14.10;99.90;;;;;;4960418;28;20041;-21
2024/01/04 12:34:29;;;;;;;5.20;1.17;;;14.10;99.90;;;;;;4972238;28;20027;-21
2024/01/04 12:37:06;;;;;;;3.50;1.00;;;14.00;99.90;;;;;;4972371;28;20101;-20
2024/01/04 12:39:32;;;;;;;4.73;0.90;;;14.00;99.90;;;;;;4972602;28;20026;-21
2024/01/04 12:41:58;;;;;;;4.65;1.10;;;14.00;99.90;;;;;;4970532;28;20474;-20
2024/01/04 12:44:24;;;;;;;3.88;1.00;;;13.90;99.90;;;;;;4956045;28;20030;-21
2024/01/04 12:46:50;;;;;;;4.53;1.20;;;13.90;99.90;;;;;;4973377;28;20049;-22